Elisabeth — LHEA — position and weather

sailwx.info

Track history (hours):
 
Tides and Currents Weather Stations Pressure Air Temp Water Temp Dewpoint Dewpoint Depression Visibility Wind Speed Wind Dir Waves Ship Positions

Elisabeth

Last reported at 2016-Jun-28 12:34 UTC. Time now 2016-Jun-28 13:25 UTC.
Position N 58°27' E 005°59'.

Length 61 m; draft 7 m.

Type: Fishing. MMSI: 259166000.

Date/timePositionNaut miles runAvg speedWind from/ knotsBaromVisibWave heightAir tempDewpointWater temp
2016-Jun-28 12:34N 58°27' E 005°59'0 0.0
2016-Jun-28 11:34N 58°27' E 005°59'0 0.0
2016-Jun-28 10:33N 58°27' E 005°59'0 0.0
2016-Jun-28 09:33N 58°27' E 005°59'3 2.8
2016-Jun-28 08:33N 58°24' E 005°58'1211.9
2016-Jun-28 07:34N 58°28' E 005°37'1212.2
2016-Jun-28 06:34N 58°32' E 005°15'16 0.3
2016-Jun-26 08:33N 58°38' E 004°47'10 9.8
2016-Jun-26 07:33N 58°34' E 005°04'1010.2
2016-Jun-26 06:33N 58°31' E 005°22'1110.5
2016-Jun-26 05:30N 58°27' E 005°42'9 9.9
2016-Jun-26 04:33N 58°24' E 005°59'2 2.2
2016-Jun-26 03:33N 58°27' E 005°59'0 0.0
2016-Jun-26 02:33N 58°27' E 005°59'0 0.0
2016-Jun-26 01:33N 58°27' E 005°59'0 0.0
2016-Jun-26 00:33N 58°27' E 005°59'0 0.0
2016-Jun-25 23:33N 58°27' E 005°59'0 0.0
2016-Jun-25 22:33N 58°27' E 005°59'0 0.3
2016-Jun-25 21:33N 58°27' E 005°59'0 0.0
2016-Jun-25 20:33N 58°27' E 005°59'0 0.0
2016-Jun-25 19:33N 58°27' E 005°59'0 0.0
2016-Jun-25 18:33N 58°27' E 005°59'0 0.0
2016-Jun-25 17:33N 58°27' E 005°59'0 0.0
2016-Jun-25 16:33N 58°27' E 005°59'0 0.0
2016-Jun-25 15:33N 58°27' E 005°59'0 0.0
2016-Jun-25 14:33N 58°27' E 005°59'0 0.0
2016-Jun-25 13:33N 58°27' E 005°59'0 0.2
2016-Jun-25 12:33N 58°27' E 005°59'0 0.0
2016-Jun-25 11:33N 58°27' E 005°59'0 0.3
2016-Jun-25 10:33N 58°27' E 005°59'7 6.8
2016-Jun-25 09:33N 58°26' E 005°46'1110.8
2016-Jun-25 08:33N 58°32' E 005°29'1211.6
2016-Jun-25 07:33N 58°39' E 005°10'1211.7
2016-Jun-25 06:33N 58°46' E 004°52'8 0.3
2016-Jun-24 04:33N 58°53' E 004°47'1111.3
2016-Jun-24 03:33N 58°46' E 005°04'1211.6
2016-Jun-24 02:33N 58°38' E 005°20'1111.1
2016-Jun-24 01:32N 58°31' E 005°37'1110.8
2016-Jun-24 00:33N 58°24' E 005°53'4 4.1
2016-Jun-23 23:33N 58°27' E 005°59'0 0.0
2016-Jun-23 22:33N 58°27' E 005°59'0 0.0
2016-Jun-23 21:33N 58°27' E 005°59'0 0.0
2016-Jun-23 20:33N 58°27' E 005°59'0 0.0
2016-Jun-23 19:33N 58°27' E 005°59'0 0.2
2016-Jun-23 18:33N 58°27' E 005°59'0 0.0
2016-Jun-23 17:33N 58°27' E 005°59'0 0.3
2016-Jun-23 16:33N 58°27' E 005°60'0 0.0
2016-Jun-23 15:33N 58°27' E 005°60'0 0.0
2016-Jun-23 14:33N 58°27' E 005°60'0 0.0
2016-Jun-23 13:33N 58°27' E 005°60'0 0.0
2016-Jun-23 12:33N 58°27' E 005°60'0 0.0
2016-Jun-23 11:33N 58°27' E 005°60'0 0.1
2016-Jun-23 10:33N 58°27' E 005°59'0 0.1
2016-Jun-23 09:34N 58°27' E 005°59'8 7.6
2016-Jun-23 08:33N 58°28' E 005°45'1313.3
2016-Jun-23 07:33N 58°38' E 005°29'2612.9
2016-Jun-23 05:33N 58°59' E 004°59'1313.1
2016-Jun-23 04:33N 59°10' E 004°44'  
2016-Jun-19 20:05N 59°31' E 005°13'610.6
2016-Jun-19 19:33N 59°37' E 005°15'1 0.6
2016-Jun-19 18:33N 59°36' E 005°14'0 0.0
2016-Jun-19 17:31N 59°36' E 005°14'0 0.0
2016-Jun-19 16:33N 59°36' E 005°14'0 0.0
2016-Jun-19 15:30N 59°36' E 005°14'0 0.0
2016-Jun-19 14:32N 59°36' E 005°14'0 0.0
2016-Jun-19 13:32N 59°36' E 005°14'0 0.0
2016-Jun-19 12:23N 59°36' E 005°14'0 0.0
2016-Jun-19 11:32N 59°36' E 005°14'0 0.0
2016-Jun-19 10:32N 59°36' E 005°14'0 0.0
2016-Jun-19 09:33N 59°36' E 005°14'0 0.0
2016-Jun-19 08:33N 59°36' E 005°14'0 0.0
2016-Jun-19 07:32N 59°36' E 005°14'0 0.0
2016-Jun-19 06:32N 59°37' E 005°14'0 0.0
2016-Jun-19 05:33N 59°36' E 005°14'0 0.0
2016-Jun-19 04:27N 59°36' E 005°14'0 0.0
2016-Jun-19 03:33N 59°36' E 005°14'0 0.0
2016-Jun-19 02:31N 59°36' E 005°14'0 0.0
2016-Jun-19 01:24N 59°36' E 005°14'0 0.0
2016-Jun-19 00:32N 59°36' E 005°14'0 0.0
2016-Jun-18 23:33N 59°36' E 005°14'0 0.0
2016-Jun-18 22:32N 59°36' E 005°14'0 0.0
2016-Jun-18 21:29N 59°36' E 005°14'0 0.0
2016-Jun-18 20:26N 59°36' E 005°14'0 0.0
2016-Jun-18 19:32N 59°36' E 005°14'0 0.0
2016-Jun-18 18:29N 59°36' E 005°14'0 0.0
2016-Jun-18 17:27N 59°36' E 005°14'0 0.0
2016-Jun-18 16:31N 59°36' E 005°14'0 0.0
2016-Jun-18 15:32N 59°36' E 005°14'0 0.0
2016-Jun-18 14:31N 59°36' E 005°14'0 0.0
2016-Jun-18 13:12N 59°36' E 005°14'  
Track history (hours):
 
Tides and Currents Weather Stations Pressure Air Temp Water Temp Dewpoint Dewpoint Depression Visibility Wind Speed Wind Dir Waves Ship Positions

Elisabeth

Last reported at 2016-Jun-28 12:34 UTC. Time now 2016-Jun-28 13:25 UTC.
Position N 58°27' E 005°59'.

Length 61 m; draft 7 m.

Type: Fishing. MMSI: 259166000.

Date/timePositionNaut miles runAvg speedWind from/ knotsBaromVisibWave heightAir tempDewpointWater temp
2016-Jun-28 12:34N 58°27' E 005°59'0 0.0
2016-Jun-28 11:34N 58°27' E 005°59'0 0.0
2016-Jun-28 10:33N 58°27' E 005°59'0 0.0
2016-Jun-28 09:33N 58°27' E 005°59'3 2.8
2016-Jun-28 08:33N 58°24' E 005°58'1211.9
2016-Jun-28 07:34N 58°28' E 005°37'1212.2
2016-Jun-28 06:34N 58°32' E 005°15'16 0.3
2016-Jun-26 08:33N 58°38' E 004°47'10 9.8
2016-Jun-26 07:33N 58°34' E 005°04'1010.2
2016-Jun-26 06:33N 58°31' E 005°22'1110.5
2016-Jun-26 05:30N 58°27' E 005°42'9 9.9
2016-Jun-26 04:33N 58°24' E 005°59'2 2.2
2016-Jun-26 03:33N 58°27' E 005°59'0 0.0
2016-Jun-26 02:33N 58°27' E 005°59'0 0.0
2016-Jun-26 01:33N 58°27' E 005°59'0 0.0
2016-Jun-26 00:33N 58°27' E 005°59'0 0.0
2016-Jun-25 23:33N 58°27' E 005°59'0 0.0
2016-Jun-25 22:33N 58°27' E 005°59'0 0.3
2016-Jun-25 21:33N 58°27' E 005°59'0 0.0
2016-Jun-25 20:33N 58°27' E 005°59'0 0.0
2016-Jun-25 19:33N 58°27' E 005°59'0 0.0
2016-Jun-25 18:33N 58°27' E 005°59'0 0.0
2016-Jun-25 17:33N 58°27' E 005°59'0 0.0
2016-Jun-25 16:33N 58°27' E 005°59'0 0.0
2016-Jun-25 15:33N 58°27' E 005°59'0 0.0
2016-Jun-25 14:33N 58°27' E 005°59'0 0.0
2016-Jun-25 13:33N 58°27' E 005°59'0 0.2
2016-Jun-25 12:33N 58°27' E 005°59'0 0.0
2016-Jun-25 11:33N 58°27' E 005°59'0 0.3
2016-Jun-25 10:33N 58°27' E 005°59'7 6.8
2016-Jun-25 09:33N 58°26' E 005°46'1110.8
2016-Jun-25 08:33N 58°32' E 005°29'1211.6
2016-Jun-25 07:33N 58°39' E 005°10'1211.7
2016-Jun-25 06:33N 58°46' E 004°52'8 0.3
2016-Jun-24 04:33N 58°53' E 004°47'1111.3
2016-Jun-24 03:33N 58°46' E 005°04'1211.6
2016-Jun-24 02:33N 58°38' E 005°20'1111.1
2016-Jun-24 01:32N 58°31' E 005°37'1110.8
2016-Jun-24 00:33N 58°24' E 005°53'4 4.1
2016-Jun-23 23:33N 58°27' E 005°59'0 0.0
2016-Jun-23 22:33N 58°27' E 005°59'0 0.0
2016-Jun-23 21:33N 58°27' E 005°59'0 0.0
2016-Jun-23 20:33N 58°27' E 005°59'0 0.0
2016-Jun-23 19:33N 58°27' E 005°59'0 0.2
2016-Jun-23 18:33N 58°27' E 005°59'0 0.0
2016-Jun-23 17:33N 58°27' E 005°59'0 0.3
2016-Jun-23 16:33N 58°27' E 005°60'0 0.0
2016-Jun-23 15:33N 58°27' E 005°60'0 0.0
2016-Jun-23 14:33N 58°27' E 005°60'0 0.0
2016-Jun-23 13:33N 58°27' E 005°60'0 0.0
2016-Jun-23 12:33N 58°27' E 005°60'0 0.0
2016-Jun-23 11:33N 58°27' E 005°60'0 0.1
2016-Jun-23 10:33N 58°27' E 005°59'0 0.1
2016-Jun-23 09:34N 58°27' E 005°59'8 7.6
2016-Jun-23 08:33N 58°28' E 005°45'1313.3
2016-Jun-23 07:33N 58°38' E 005°29'2612.9
2016-Jun-23 05:33N 58°59' E 004°59'1313.1
2016-Jun-23 04:33N 59°10' E 004°44'  
2016-Jun-19 20:05N 59°31' E 005°13'610.6
2016-Jun-19 19:33N 59°37' E 005°15'1 0.6
2016-Jun-19 18:33N 59°36' E 005°14'0 0.0
2016-Jun-19 17:31N 59°36' E 005°14'0 0.0
2016-Jun-19 16:33N 59°36' E 005°14'0 0.0
2016-Jun-19 15:30N 59°36' E 005°14'0 0.0
2016-Jun-19 14:32N 59°36' E 005°14'0 0.0
2016-Jun-19 13:32N 59°36' E 005°14'0 0.0
2016-Jun-19 12:23N 59°36' E 005°14'0 0.0
2016-Jun-19 11:32N 59°36' E 005°14'0 0.0
2016-Jun-19 10:32N 59°36' E 005°14'0 0.0
2016-Jun-19 09:33N 59°36' E 005°14'0 0.0
2016-Jun-19 08:33N 59°36' E 005°14'0 0.0
2016-Jun-19 07:32N 59°36' E 005°14'0 0.0
2016-Jun-19 06:32N 59°37' E 005°14'0 0.0
2016-Jun-19 05:33N 59°36' E 005°14'0 0.0
2016-Jun-19 04:27N 59°36' E 005°14'0 0.0
2016-Jun-19 03:33N 59°36' E 005°14'0 0.0
2016-Jun-19 02:31N 59°36' E 005°14'0 0.0
2016-Jun-19 01:24N 59°36' E 005°14'0 0.0
2016-Jun-19 00:32N 59°36' E 005°14'0 0.0
2016-Jun-18 23:33N 59°36' E 005°14'0 0.0
2016-Jun-18 22:32N 59°36' E 005°14'0 0.0
2016-Jun-18 21:29N 59°36' E 005°14'0 0.0
2016-Jun-18 20:26N 59°36' E 005°14'0 0.0
2016-Jun-18 19:32N 59°36' E 005°14'0 0.0
2016-Jun-18 18:29N 59°36' E 005°14'0 0.0
2016-Jun-18 17:27N 59°36' E 005°14'0 0.0
2016-Jun-18 16:31N 59°36' E 005°14'0 0.0
2016-Jun-18 15:32N 59°36' E 005°14'0 0.0
2016-Jun-18 14:31N 59°36' E 005°14'0 0.0
2016-Jun-18 13:12N 59°36' E 005°14'  

Dump ship's entire track history